Time;durP1;ratioP1;P1;durP2;ratioP2;P2;SDS_P1;SDS_P2;PMS_P1;PMS_P2;Temp;Humidity;BMP_temperature;BMP_pressure;BME280_temperature;BME280_humidity;BME280_pressure;Samples;Min_cycle;Max_cycle;Signal;HPM_P1;HPM_P2
2022/10/07 00:01:02;;;;;;;6.50;2.60;;;10.70;99.90;;;;;;4977029;28;91673;-73
2022/10/07 00:03:29;;;;;;;8.98;3.40;;;10.70;99.90;;;;;;4977710;28;93304;-73
2022/10/07 00:06:04;;;;;;;9.75;2.90;;;10.70;99.90;;;;;;4977646;28;92882;-73
2022/10/07 00:08:33;;;;;;;9.50;3.05;;;10.70;99.90;;;;;;4976703;28;94825;-73
2022/10/07 00:11:10;;;;;;;9.43;3.60;;;10.70;99.90;;;;;;4977210;28;100846;-73
2022/10/07 00:13:38;;;;;;;7.35;3.88;;;10.70;99.90;;;;;;4977678;28;93288;-73
2022/10/07 00:16:08;;;;;;;8.73;3.20;;;10.70;99.90;;;;;;4977317;28;92944;-73
2022/10/07 00:18:36;;;;;;;9.20;4.15;;;10.70;99.90;;;;;;4976350;28;92598;-73
2022/10/07 00:21:09;;;;;;;10.10;3.95;;;10.70;99.90;;;;;;4975892;28;92497;-73
2022/10/07 00:23:36;;;;;;;8.35;3.70;;;10.70;99.90;;;;;;4975797;28;96022;-73
2022/10/07 00:26:06;;;;;;;6.72;4.05;;;10.70;99.90;;;;;;4977779;28;92955;-73
2022/10/07 00:28:34;;;;;;;7.85;3.92;;;10.70;99.90;;;;;;4976877;28;92566;-73
2022/10/07 00:31:04;;;;;;;7.07;3.50;;;10.60;99.90;;;;;;4977246;28;92435;-73
2022/10/07 00:33:33;;;;;;;10.02;3.95;;;10.60;99.90;;;;;;4974542;28;95534;-73
2022/10/07 00:36:00;;;;;;;9.43;4.03;;;10.60;99.90;;;;;;4959386;28;98063;-73
2022/10/07 00:38:27;;;;;;;15.30;4.43;;;10.60;99.90;;;;;;4975756;28;92680;-73
2022/10/07 00:40:54;;;;;;;7.35;3.88;;;10.60;99.90;;;;;;4976030;28;92558;-73
2022/10/07 00:43:23;;;;;;;9.20;4.03;;;10.60;99.90;;;;;;4959397;28;95467;-73
2022/10/07 00:45:50;;;;;;;9.38;4.50;;;10.60;99.90;;;;;;4977038;28;93138;-73
2022/10/07 00:48:23;;;;;;;7.80;4.00;;;10.50;99.90;;;;;;4975753;28;92929;-73
2022/10/07 00:50:53;;;;;;;8.00;4.20;;;10.60;99.90;;;;;;4976225;28;91828;-73
2022/10/07 00:53:21;;;;;;;11.52;4.57;;;10.50;99.90;;;;;;4975379;28;95460;-73
2022/10/07 00:55:48;;;;;;;9.10;4.57;;;10.50;99.90;;;;;;4975483;28;94745;-73
2022/10/07 00:58:15;;;;;;;10.52;4.15;;;10.50;99.90;;;;;;4974380;28;94995;-73
2022/10/07 01:00:42;;;;;;;8.73;4.32;;;10.50;99.90;;;;;;4975595;28;92460;-72
2022/10/07 01:03:10;;;;;;;6.63;4.00;;;10.50;99.90;;;;;;4959196;28;94147;-73
2022/10/07 01:05:37;;;;;;;9.95;4.40;;;10.50;99.90;;;;;;4976617;28;92935;-73
2022/10/07 01:08:04;;;;;;;14.45;5.00;;;10.50;99.90;;;;;;4959329;28;93222;-73
2022/10/07 01:11:00;;;;;;;9.18;4.40;;;10.50;99.90;;;;;;4973988;28;92478;-73
2022/10/07 01:13:41;;;;;;;9.73;4.68;;;10.50;99.90;;;;;;4953123;28;96000;-73
2022/10/07 01:16:29;;;;;;;7.82;4.10;;;10.50;99.90;;;;;;4959482;28;95562;-73
2022/10/07 01:19:18;;;;;;;9.13;4.30;;;10.40;99.90;;;;;;4975227;28;92443;-73
2022/10/07 01:22:31;;;;;;;9.18;4.40;;;10.40;99.90;;;;;;4975304;28;92408;-73
2022/10/07 01:25:18;;;;;;;11.05;4.97;;;10.40;99.90;;;;;;4944104;28;94982;-73
2022/10/07 01:27:54;;;;;;;11.77;4.10;;;10.40;99.90;;;;;;4974587;28;98830;-73
2022/10/07 01:30:21;;;;;;;10.65;4.60;;;10.40;99.90;;;;;;4991622;28;92446;-73
2022/10/07 01:32:58;;;;;;;8.18;4.00;;;10.30;99.90;;;;;;4976737;28;92723;-73
2022/10/07 01:35:32;;;;;;;11.35;4.65;;;10.40;99.90;;;;;;4991192;28;95798;-73
2022/10/07 01:38:04;;;;;;;7.53;3.80;;;10.40;99.90;;;;;;4976427;28;92561;-73
2022/10/07 01:40:42;;;;;;;8.23;4.10;;;10.30;99.90;;;;;;4958636;28;92512;-73
2022/10/07 01:43:13;;;;;;;8.90;4.00;;;10.40;99.90;;;;;;4976868;28;91707;-73
2022/10/07 01:45:40;;;;;;;7.30;4.30;;;10.30;99.90;;;;;;4975987;28;94461;-73
2022/10/07 01:48:08;;;;;;;11.02;4.82;;;10.30;99.90;;;;;;4958308;28;95517;-73
2022/10/07 01:50:36;;;;;;;10.43;4.25;;;10.30;99.90;;;;;;4973411;28;94990;-73
2022/10/07 01:53:11;;;;;;;14.10;4.28;;;10.30;99.90;;;;;;4958549;28;92521;-73
2022/10/07 01:56:09;;;;;;;9.70;4.30;;;10.30;99.90;;;;;;4991082;28;95821;-73
2022/10/07 01:58:38;;;;;;;8.45;4.38;;;10.30;99.90;;;;;;4974181;28;95245;-73
2022/10/07 02:01:16;;;;;;;10.45;3.90;;;10.30;99.90;;;;;;4958838;28;92731;-73
2022/10/07 02:04:03;;;;;;;13.50;4.43;;;10.20;99.90;;;;;;4974790;28;92591;-73
2022/10/07 02:06:36;;;;;;;9.82;4.35;;;10.30;99.90;;;;;;4990838;28;95710;-73
2022/10/07 02:09:15;;;;;;;11.03;4.47;;;10.20;99.90;;;;;;4958749;28;94822;-73
2022/10/07 02:11:44;;;;;;;10.45;4.97;;;10.20;99.90;;;;;;4958222;28;92464;-73
2022/10/07 02:14:28;;;;;;;16.17;4.68;;;10.20;99.90;;;;;;4958209;28;92543;-73
2022/10/07 02:17:04;;;;;;;8.38;4.10;;;10.20;99.90;;;;;;4957003;28;98128;-73
2022/10/07 02:19:34;;;;;;;10.02;4.32;;;10.20;99.90;;;;;;4975333;28;95484;-73
2022/10/07 02:22:04;;;;;;;7.47;3.92;;;10.20;99.90;;;;;;4974357;28;92547;-73
2022/10/07 02:24:39;;;;;;;8.23;4.15;;;10.20;99.90;;;;;;4974108;28;92577;-73
2022/10/07 02:27:11;;;;;;;7.20;3.78;;;10.20;99.90;;;;;;4991147;28;94924;-73
2022/10/07 02:29:41;;;;;;;8.52;4.00;;;10.20;99.90;;;;;;4973890;28;95337;-73
2022/10/07 02:32:17;;;;;;;10.00;4.00;;;10.20;99.90;;;;;;4958039;28;92454;-73
2022/10/07 02:34:47;;;;;;;12.82;4.22;;;10.20;99.90;;;;;;4958315;28;91884;-73
2022/10/07 02:37:23;;;;;;;11.10;4.50;;;10.20;99.90;;;;;;4974383;28;95749;-73
2022/10/07 02:39:52;;;;;;;8.98;4.20;;;10.20;99.90;;;;;;4974163;28;95550;-73
2022/10/07 02:42:24;;;;;;;12.35;4.07;;;10.10;99.90;;;;;;4972988;28;95038;-73
2022/10/07 02:45:02;;;;;;;11.38;4.57;;;10.20;99.90;;;;;;4974173;28;92486;-73
2022/10/07 02:47:36;;;;;;;12.27;5.70;;;10.10;99.90;;;;;;4973927;28;95504;-73
2022/10/07 02:50:07;;;;;;;13.95;5.07;;;10.10;99.90;;;;;;4957818;28;95315;-73
2022/10/07 02:52:35;;;;;;;8.65;4.18;;;10.10;99.90;;;;;;4974119;28;92847;-73
2022/10/07 02:55:08;;;;;;;11.95;4.57;;;10.10;99.90;;;;;;4957795;28;92887;-73
2022/10/07 02:57:41;;;;;;;10.63;4.32;;;10.10;99.90;;;;;;4973718;28;96117;-73
2022/10/07 03:00:10;;;;;;;11.50;4.60;;;10.10;99.90;;;;;;4974424;28;95114;-73
2022/10/07 03:02:55;;;;;;;7.93;4.22;;;10.10;99.90;;;;;;4959044;28;92534;-73
2022/10/07 03:05:28;;;;;;;13.55;4.60;;;10.10;99.90;;;;;;4973500;28;92610;-73
2022/10/07 03:08:03;;;;;;;13.00;4.75;;;10.10;99.90;;;;;;4956923;28;97753;-73
2022/10/07 03:10:31;;;;;;;14.68;4.65;;;10.10;99.90;;;;;;4973558;28;97669;-73
2022/10/07 03:12:59;;;;;;;12.82;4.43;;;10.10;99.90;;;;;;4957837;28;92570;-73
2022/10/07 03:15:26;;;;;;;7.75;4.50;;;10.10;99.90;;;;;;4973793;28;92429;-73
2022/10/07 03:17:54;;;;;;;10.90;4.20;;;10.00;99.90;;;;;;4973532;28;95304;-73
2022/10/07 03:20:21;;;;;;;9.00;4.25;;;10.10;99.90;;;;;;4973754;28;95476;-73
2022/10/07 03:22:49;;;;;;;9.15;4.10;;;10.00;99.90;;;;;;4957504;28;92469;-73
2022/10/07 03:25:18;;;;;;;11.38;5.10;;;10.00;99.90;;;;;;4973919;28;91790;-73
2022/10/07 03:27:47;;;;;;;11.10;4.50;;;10.10;99.90;;;;;;4956772;28;95917;-73
2022/10/07 03:30:14;;;;;;;14.23;5.63;;;10.00;99.90;;;;;;4990080;28;95129;-73
2022/10/07 03:32:41;;;;;;;12.10;5.20;;;10.10;99.90;;;;;;4956132;28;95056;-73
2022/10/07 03:35:09;;;;;;;9.23;4.30;;;10.00;99.90;;;;;;4960496;28;92660;-73
2022/10/07 03:37:37;;;;;;;10.88;5.22;;;10.00;99.90;;;;;;4976403;28;95624;-73
2022/10/07 03:40:07;;;;;;;8.40;4.45;;;10.00;99.90;;;;;;4960947;28;95540;-73
2022/10/07 03:42:34;;;;;;;10.38;4.80;;;10.00;99.90;;;;;;4978080;28;92498;-73
2022/10/07 03:45:02;;;;;;;10.00;4.68;;;10.00;99.90;;;;;;4976732;28;92496;-73
2022/10/07 03:47:29;;;;;;;12.60;4.40;;;10.00;99.90;;;;;;4976491;28;95658;-73
2022/10/07 03:49:56;;;;;;;13.98;5.30;;;10.00;99.90;;;;;;4960583;28;95378;-73
2022/10/07 03:52:23;;;;;;;9.30;4.50;;;10.00;99.90;;;;;;4976815;28;92520;-73
2022/10/07 03:54:54;;;;;;;9.85;4.90;;;10.00;99.90;;;;;;4960258;28;92510;-73
2022/10/07 04:00:07;;;;;;;11.95;5.05;;;10.00;99.90;;;;;;4976419;28;97920;-73
2022/10/07 04:02:40;;;;;;;11.23;5.13;;;10.00;99.90;;;;;;4975147;28;92425;-73
2022/10/07 04:05:09;;;;;;;12.00;4.53;;;10.00;99.90;;;;;;4976482;28;93123;-73
2022/10/07 04:07:36;;;;;;;9.13;4.63;;;10.00;99.90;;;;;;4960036;28;95166;-73
2022/10/07 04:10:03;;;;;;;10.48;4.93;;;10.00;99.90;;;;;;4959880;28;95286;-73
2022/10/07 04:12:32;;;;;;;8.00;4.47;;;10.00;99.90;;;;;;4993181;28;93140;-73
2022/10/07 04:15:00;;;;;;;9.10;4.68;;;10.00;99.90;;;;;;4993346;28;91810;-73
2022/10/07 04:17:29;;;;;;;10.73;5.07;;;10.00;99.90;;;;;;4976119;28;95608;-73
2022/10/07 04:19:56;;;;;;;10.70;4.72;;;10.00;99.90;;;;;;4975852;28;95781;-73
2022/10/07 04:22:24;;;;;;;14.77;5.00;;;10.00;99.90;;;;;;4974809;28;94942;-73
2022/10/07 04:27:38;;;;;;;17.75;5.35;;;10.00;99.90;;;;;;4975551;28;95912;-73
2022/10/07 04:30:18;;;;;;;11.98;4.90;;;9.90;99.90;;;;;;4961399;28;95489;-73
2022/10/07 04:32:45;;;;;;;14.20;5.18;;;9.90;99.90;;;;;;4959578;28;92578;-73
2022/10/07 04:35:12;;;;;;;8.90;4.60;;;9.90;99.90;;;;;;4959956;28;92906;-73
2022/10/07 04:37:40;;;;;;;8.90;4.63;;;9.90;99.90;;;;;;4959798;28;95836;-73
2022/10/07 04:40:08;;;;;;;17.02;5.30;;;9.90;99.90;;;;;;4977554;28;91856;-73
2022/10/07 04:45:20;;;;;;;12.93;4.95;;;9.90;99.90;;;;;;4975230;28;92687;-73
2022/10/07 04:47:47;;;;;;;12.10;5.28;;;9.90;99.90;;;;;;4974092;28;97740;-73
2022/10/07 04:50:15;;;;;;;12.50;5.13;;;9.90;99.90;;;;;;4943535;28;97826;-73
2022/10/07 04:52:42;;;;;;;9.07;4.70;;;9.90;99.90;;;;;;4992193;28;92496;-73
2022/10/07 04:55:11;;;;;;;16.27;5.57;;;9.90;99.90;;;;;;4959545;28;92472;-73
2022/10/07 04:57:38;;;;;;;12.30;4.93;;;9.90;99.90;;;;;;4975401;28;95764;-73
2022/10/07 05:00:06;;;;;;;16.38;5.80;;;9.80;99.90;;;;;;4974994;28;95415;-73
2022/10/07 05:02:35;;;;;;;13.48;4.70;;;9.90;99.90;;;;;;4975668;28;92562;-73
2022/10/07 05:05:02;;;;;;;12.70;5.07;;;9.80;99.90;;;;;;4975680;28;91902;-73
2022/10/07 05:07:31;;;;;;;13.25;5.00;;;9.80;99.90;;;;;;4959138;28;95991;-73
2022/10/07 05:09:59;;;;;;;11.93;4.32;;;9.80;99.90;;;;;;4959109;28;95324;-73
2022/10/07 05:12:26;;;;;;;12.40;5.18;;;9.80;99.90;;;;;;4974258;28;94908;-73
2022/10/07 05:14:53;;;;;;;12.27;5.95;;;9.80;99.90;;;;;;4958784;28;92552;-73
2022/10/07 05:17:20;;;;;;;14.48;5.40;;;9.80;99.90;;;;;;4959285;28;94591;-73
2022/10/07 05:19:49;;;;;;;16.77;5.80;;;9.80;99.90;;;;;;4974877;28;94233;-73
2022/10/07 05:22:16;;;;;;;14.50;5.00;;;9.80;99.90;;;;;;4975513;28;93192;-73
2022/10/07 05:24:43;;;;;;;14.60;5.30;;;9.80;99.90;;;;;;4975351;28;92491;-73
2022/10/07 05:27:12;;;;;;;15.15;5.63;;;9.80;99.90;;;;;;4974243;28;95588;-73
2022/10/07 05:29:39;;;;;;;13.85;5.57;;;9.80;99.90;;;;;;4959228;28;95275;-73
2022/10/07 05:32:06;;;;;;;11.77;5.32;;;9.80;99.90;;;;;;4976270;28;92452;-73
2022/10/07 05:34:34;;;;;;;14.88;5.63;;;9.80;99.90;;;;;;4959118;28;92574;-73
2022/10/07 05:37:00;;;;;;;16.65;5.15;;;9.80;99.90;;;;;;4941009;28;98120;-73
2022/10/07 05:39:27;;;;;;;13.77;5.35;;;9.80;99.90;;;;;;4974643;28;98369;-73
2022/10/07 05:42:01;;;;;;;15.80;5.60;;;9.80;99.90;;;;;;4975006;28;92504;-73
2022/10/07 05:44:36;;;;;;;14.82;5.47;;;9.80;99.90;;;;;;4974928;28;92502;-73
2022/10/07 05:47:04;;;;;;;13.52;5.55;;;9.80;99.90;;;;;;4974524;28;95888;-73
2022/10/07 05:49:31;;;;;;;14.18;5.30;;;9.80;99.90;;;;;;4974673;28;94224;-73
2022/10/07 05:51:58;;;;;;;15.23;5.28;;;9.80;99.90;;;;;;4974738;28;92494;-73
2022/10/07 05:54:25;;;;;;;15.35;4.97;;;9.80;99.90;;;;;;4976530;28;91712;-73
2022/10/07 05:56:54;;;;;;;22.15;6.50;;;9.80;99.90;;;;;;4973719;28;95516;-73
2022/10/07 05:59:22;;;;;;;13.32;5.38;;;9.80;99.90;;;;;;4974726;28;95696;-73
2022/10/07 06:01:49;;;;;;;21.13;5.38;;;9.80;99.90;;;;;;4957580;28;95423;-73
2022/10/07 06:04:19;;;;;;;118.40;12.25;;;9.80;99.90;;;;;;4974680;28;93020;-73
2022/10/07 06:06:48;;;;;;;10.63;4.85;;;9.90;99.90;;;;;;4957590;28;95884;-73
2022/10/07 06:14:55;;;;;;;16.80;5.45;;;10.00;99.90;;;;;;4974430;28;92557;-73
2022/10/07 06:17:22;;;;;;;14.98;5.53;;;10.00;99.90;;;;;;4974225;28;96023;-73
2022/10/07 06:19:51;;;;;;;13.85;7.47;;;10.00;99.90;;;;;;4958676;28;96100;-73
2022/10/07 06:22:21;;;;;;;16.20;6.45;;;10.10;99.90;;;;;;4974560;28;93037;-73
2022/10/07 06:24:50;;;;;;;14.65;6.03;;;10.10;99.90;;;;;;4958241;28;92432;-73
2022/10/07 06:27:19;;;;;;;13.88;5.15;;;10.20;99.90;;;;;;4956148;28;97937;-73
2022/10/07 06:29:46;;;;;;;11.85;5.28;;;10.20;99.90;;;;;;4956518;28;97799;-73
2022/10/07 06:32:13;;;;;;;13.57;5.63;;;10.30;99.90;;;;;;4956492;28;92689;-73
2022/10/07 06:34:40;;;;;;;16.23;5.47;;;10.30;99.90;;;;;;4972960;28;92548;-73
2022/10/07 06:37:08;;;;;;;15.52;5.60;;;10.40;99.90;;;;;;4972672;28;94702;-73
2022/10/07 06:39:35;;;;;;;14.10;7.13;;;10.40;99.90;;;;;;4972685;28;95712;-73
2022/10/07 06:42:02;;;;;;;15.68;5.38;;;10.50;99.90;;;;;;4972848;28;92443;-73
2022/10/07 06:45:04;;;;;;;12.88;4.57;;;10.50;99.90;;;;;;4971805;28;91780;-73
2022/10/07 06:47:34;;;;;;;15.70;5.50;;;10.60;99.90;;;;;;4972243;28;94573;-73
2022/10/07 06:50:02;;;;;;;14.27;5.72;;;10.70;99.90;;;;;;4956132;28;95723;-73
2022/10/07 06:52:30;;;;;;;16.63;5.05;;;10.80;99.90;;;;;;4971723;28;94855;-73
2022/10/07 06:54:57;;;;;;;15.43;5.22;;;10.90;99.90;;;;;;4974285;28;92462;-73
2022/10/07 06:57:27;;;;;;;19.83;5.63;;;11.10;99.90;;;;;;4956614;28;94376;-73
2022/10/07 07:00:12;;;;;;;13.30;4.80;;;11.20;99.90;;;;;;4944534;28;94936;-73
2022/10/07 07:02:40;;;;;;;11.20;3.88;;;11.40;99.90;;;;;;4956789;28;92457;-73
2022/10/07 07:05:12;;;;;;;37.20;6.72;;;11.50;99.90;;;;;;4972599;28;92535;-73
2022/10/07 07:07:39;;;;;;;11.05;4.22;;;11.70;99.90;;;;;;4957560;28;95812;-73
2022/10/07 07:10:06;;;;;;;16.13;5.20;;;11.90;99.90;;;;;;4960178;28;95354;-73
2022/10/07 07:12:36;;;;;;;11.88;4.28;;;12.10;99.90;;;;;;4960725;28;92461;-73
2022/10/07 07:15:04;;;;;;;16.75;4.25;;;12.10;99.90;;;;;;4975823;28;92549;-73
2022/10/07 07:17:31;;;;;;;12.80;4.07;;;12.20;99.90;;;;;;4958741;28;98091;-73
2022/10/07 07:19:59;;;;;;;18.83;4.90;;;12.20;99.90;;;;;;4976112;28;94381;-73
2022/10/07 07:22:26;;;;;;;11.05;4.28;;;12.20;99.90;;;;;;4976110;28;92519;-73
2022/10/07 07:24:53;;;;;;;11.00;4.47;;;12.30;99.90;;;;;;4977608;28;92463;-73
2022/10/07 07:27:20;;;;;;;14.97;5.13;;;12.30;99.90;;;;;;4931582;28;1253971;-73
2022/10/07 07:29:47;;;;;;;13.48;4.85;;;12.40;99.90;;;;;;4960860;28;95631;-73
2022/10/07 07:32:14;;;;;;;13.50;4.40;;;12.40;99.90;;;;;;4976616;28;92554;-73
2022/10/07 07:34:43;;;;;;;8.77;4.22;;;12.60;99.90;;;;;;4977279;28;92237;-73
2022/10/07 07:37:17;;;;;;;12.93;4.70;;;12.60;99.90;;;;;;4976721;28;95221;-73
2022/10/07 07:39:48;;;;;;;13.68;4.00;;;12.80;99.90;;;;;;4961245;28;94760;-73
2022/10/07 07:42:16;;;;;;;9.93;3.97;;;12.90;99.90;;;;;;4975416;28;94937;-73
2022/10/07 07:44:43;;;;;;;12.80;4.43;;;13.20;99.90;;;;;;4960509;28;92534;-73
2022/10/07 07:47:15;;;;;;;12.27;4.70;;;13.50;99.90;;;;;;4976139;28;95547;-73
2022/10/07 07:49:44;;;;;;;14.80;5.03;;;14.00;99.90;;;;;;4976463;28;95471;-73
2022/10/07 07:52:17;;;;;;;14.97;5.33;;;14.50;99.90;;;;;;4976466;28;92548;-73
2022/10/07 07:54:47;;;;;;;16.50;5.00;;;15.10;99.90;;;;;;4977941;28;92496;-73
2022/10/07 07:57:14;;;;;;;17.23;4.80;;;15.70;99.90;;;;;;4959965;28;95514;-73
2022/10/07 07:59:41;;;;;;;10.10;3.72;;;16.20;99.90;;;;;;4960617;28;95789;-73
2022/10/07 08:02:11;;;;;;;13.38;4.05;;;16.60;99.90;;;;;;4976649;28;92419;-73
2022/10/07 08:04:40;;;;;;;12.77;4.22;;;16.70;99.90;;;;;;4960747;28;92564;-73
2022/10/07 08:07:10;;;;;;;13.50;4.15;;;16.60;99.90;;;;;;4974916;28;97492;-73
2022/10/07 08:09:40;;;;;;;18.02;4.35;;;16.50;99.90;;;;;;4992788;28;97824;-73
2022/10/07 08:12:08;;;;;;;14.88;3.67;;;16.30;99.90;;;;;;4977835;28;92503;-73
2022/10/07 08:14:36;;;;;;;11.73;3.30;;;16.20;99.90;;;;;;4976504;28;92662;-73
2022/10/07 08:17:04;;;;;;;11.20;3.97;;;16.00;99.90;;;;;;4975958;28;94476;-73
2022/10/07 08:19:31;;;;;;;16.30;4.40;;;15.80;99.90;;;;;;4959004;28;94726;-73
2022/10/07 08:21:58;;;;;;;10.82;3.78;;;15.70;99.90;;;;;;4976192;28;92439;-73
2022/10/07 08:24:28;;;;;;;12.75;3.60;;;15.60;99.90;;;;;;4977631;28;92283;-73
2022/10/07 08:26:55;;;;;;;13.02;3.70;;;15.50;99.90;;;;;;4959490;28;95775;-73
2022/10/07 08:29:22;;;;;;;10.95;3.38;;;15.40;99.90;;;;;;4975504;28;93018;-73
2022/10/07 08:31:49;;;;;;;11.38;3.50;;;15.40;99.90;;;;;;4974833;28;94852;-73
2022/10/07 08:34:16;;;;;;;10.38;3.83;;;15.30;99.90;;;;;;4977221;28;92502;-73
2022/10/07 08:36:46;;;;;;;12.52;3.05;;;15.40;99.90;;;;;;4975596;28;95856;-73
2022/10/07 08:39:13;;;;;;;10.68;3.50;;;15.40;99.90;;;;;;4976725;28;92494;-73
2022/10/07 08:41:56;;;;;;;12.85;3.90;;;15.50;99.90;;;;;;4959938;28;92462;-73
2022/10/07 08:44:35;;;;;;;13.57;4.10;;;15.60;99.90;;;;;;4977269;28;92351;-73
2022/10/07 08:47:25;;;;;;;12.80;4.20;;;15.60;99.90;;;;;;4975675;28;95882;-73
2022/10/07 08:50:11;;;;;;;13.20;3.97;;;15.60;99.90;;;;;;4976286;28;93758;-73
2022/10/07 08:52:52;;;;;;;9.75;3.60;;;15.60;99.90;;;;;;4977460;28;92472;-73
2022/10/07 08:55:40;;;;;;;8.23;3.00;;;15.50;99.90;;;;;;4991915;28;97251;-73
2022/10/07 08:58:44;;;;;;;12.60;3.53;;;15.50;99.90;;;;;;4974085;28;98064;-73
2022/10/07 09:01:23;;;;;;;11.07;3.95;;;15.50;99.90;;;;;;4975465;28;97247;-73
2022/10/07 09:03:50;;;;;;;10.23;3.55;;;15.50;99.90;;;;;;4975453;28;92522;-73
2022/10/07 09:06:39;;;;;;;8.82;3.15;;;15.50;99.90;;;;;;4975533;28;92412;-73
2022/10/07 09:09:14;;;;;;;9.80;3.50;;;15.60;99.90;;;;;;4976813;28;93405;-73
2022/10/07 09:11:44;;;;;;;10.35;3.95;;;15.70;99.90;;;;;;4976541;28;92962;-73
2022/10/07 09:14:30;;;;;;;15.45;3.72;;;15.60;99.90;;;;;;4975826;28;92408;-73
2022/10/07 09:17:05;;;;;;;12.45;3.40;;;15.80;99.90;;;;;;4977267;28;91708;-74
2022/10/07 09:19:37;;;;;;;13.27;3.10;;;15.80;99.90;;;;;;4974817;28;95805;-73
2022/10/07 09:22:30;;;;;;;12.27;3.80;;;15.80;99.90;;;;;;4976746;28;92922;-73
2022/10/07 09:25:14;;;;;;;12.40;3.30;;;15.90;99.90;;;;;;4975741;28;95430;-73
2022/10/07 09:27:41;;;;;;;10.75;3.60;;;16.00;99.90;;;;;;4976109;28;92442;-73
2022/10/07 09:30:12;;;;;;;14.73;3.65;;;16.00;99.90;;;;;;4976332;28;93269;-74
2022/10/07 09:32:43;;;;;;;13.10;3.17;;;16.10;99.90;;;;;;4974450;28;92982;-74
2022/10/07 09:35:20;;;;;;;8.68;3.17;;;16.20;99.90;;;;;;4958937;28;92492;-74
2022/10/07 09:37:58;;;;;;;7.93;2.80;;;16.30;99.90;;;;;;4976479;28;92476;-74
2022/10/07 09:40:34;;;;;;;13.73;3.17;;;16.40;99.90;;;;;;4976018;28;92465;-74
2022/10/07 09:43:09;;;;;;;12.32;3.20;;;16.40;99.90;;;;;;4975146;28;97279;-74
2022/10/07 09:45:36;;;;;;;12.23;2.80;;;16.50;99.90;;;;;;4975188;28;92457;-74
2022/10/07 09:48:18;;;;;;;11.20;2.83;;;16.50;99.90;;;;;;4974772;28;92956;-74
2022/10/07 09:50:46;;;;;;;13.57;3.15;;;16.70;99.90;;;;;;4973404;28;98319;-74
2022/10/07 09:53:22;;;;;;;14.38;3.30;;;16.70;99.90;;;;;;4958815;28;97949;-74
2022/10/07 09:55:51;;;;;;;8.70;2.65;;;16.80;99.90;;;;;;4975991;28;92462;-74
2022/10/07 09:58:27;;;;;;;11.13;2.92;;;16.90;99.90;;;;;;4958291;28;93237;-74
2022/10/07 10:00:57;;;;;;;13.57;2.85;;;17.00;99.90;;;;;;4958138;28;96578;-74
2022/10/07 10:03:35;;;;;;;10.70;2.63;;;17.10;99.90;;;;;;4975786;28;92919;-74
2022/10/07 10:06:07;;;;;;;10.13;3.20;;;17.40;99.90;;;;;;4973353;28;98430;-74
2022/10/07 10:08:44;;;;;;;11.02;2.55;;;17.70;99.90;;;;;;4973339;28;97779;-74
2022/10/07 10:11:17;;;;;;;9.07;3.00;;;17.90;99.90;;;;;;4972539;28;99341;-73
2022/10/07 10:13:46;;;;;;;8.57;2.50;;;18.10;99.90;;;;;;4971355;28;98972;-73
2022/10/07 10:16:34;;;;;;;9.00;2.53;;;18.10;99.90;;;;;;4971242;28;99341;-73
2022/10/07 10:19:20;;;;;;;12.30;2.90;;;18.30;99.90;;;;;;4971602;28;98587;-73
2022/10/07 10:21:55;;;;;;;8.82;2.80;;;18.30;99.90;;;;;;4954657;28;100304;-73
2022/10/07 10:27:39;;;;;;;9.05;2.25;;;18.40;99.90;;;;;;4971387;28;98512;-73
2022/10/07 10:30:19;;;;;;;7.90;2.95;;;18.50;99.90;;;;;;4968149;28;99007;-73
2022/10/07 10:33:17;;;;;;;9.10;2.38;;;18.60;99.90;;;;;;4972387;28;99221;-73
2022/10/07 10:36:11;;;;;;;11.75;3.47;;;18.80;99.90;;;;;;4972843;28;98842;-73
2022/10/07 10:39:01;;;;;;;8.57;2.30;;;18.90;99.90;;;;;;4971140;28;98512;-73
2022/10/07 10:41:28;;;;;;;13.27;2.70;;;19.00;99.90;;;;;;4971768;28;98485;-73
2022/10/07 10:44:11;;;;;;;35.40;5.70;;;19.00;99.70;;;;;;4973157;28;102660;-73
2022/10/07 10:47:04;;;;;;;20.23;4.95;;;19.10;99.60;;;;;;4973695;28;99835;-73
2022/10/07 10:49:36;;;;;;;13.15;2.72;;;19.20;99.20;;;;;;4957412;28;99541;-73
2022/10/07 10:52:14;;;;;;;13.68;3.25;;;19.10;99.40;;;;;;4958430;28;99091;-73
2022/10/07 10:54:46;;;;;;;15.48;4.30;;;19.40;99.40;;;;;;4974182;28;99365;-73
2022/10/07 10:57:28;;;;;;;10.93;3.00;;;19.60;99.10;;;;;;4974357;28;99221;-73
2022/10/07 11:00:10;;;;;;;7.57;2.33;;;19.70;98.60;;;;;;4974317;28;98622;-73
2022/10/07 11:02:36;;;;;;;10.85;2.90;;;19.70;98.30;;;;;;4975312;28;97757;-73
2022/10/07 11:05:31;;;;;;;7.40;2.10;;;19.80;98.10;;;;;;4975231;28;99221;-73
2022/10/07 11:08:18;;;;;;;12.85;2.95;;;20.00;97.90;;;;;;4973870;28;99088;-73
2022/10/07 11:10:54;;;;;;;58.53;9.30;;;20.00;97.70;;;;;;4975504;28;99355;-73
2022/10/07 11:13:24;;;;;;;8.65;2.40;;;20.00;97.40;;;;;;4975674;28;98608;-73
2022/10/07 11:15:55;;;;;;;10.23;2.78;;;20.00;97.50;;;;;;4973691;28;102776;-73
2022/10/07 11:18:35;;;;;;;9.98;2.58;;;20.10;97.20;;;;;;4974007;28;98971;-73
2022/10/07 11:21:07;;;;;;;9.18;2.70;;;20.20;97.20;;;;;;4974464;28;98544;-73
2022/10/07 11:23:54;;;;;;;10.38;2.40;;;20.20;97.00;;;;;;4974101;28;98583;-73
2022/10/07 11:26:29;;;;;;;12.80;3.67;;;20.30;96.70;;;;;;4967881;28;98604;-73
2022/10/07 11:29:09;;;;;;;11.63;2.33;;;20.20;96.80;;;;;;4974037;28;98891;-73
2022/10/07 11:31:41;;;;;;;10.60;3.05;;;20.20;96.90;;;;;;4974567;28;98583;-73
2022/10/07 11:34:11;;;;;;;10.27;2.50;;;20.20;97.20;;;;;;4975417;28;98492;-73
2022/10/07 11:36:56;;;;;;;9.23;2.85;;;20.30;97.20;;;;;;4974690;28;99976;-73
2022/10/07 11:39:23;;;;;;;10.05;3.97;;;20.40;96.90;;;;;;4975077;28;99829;-73
2022/10/07 11:41:53;;;;;;;8.65;2.17;;;20.30;96.90;;;;;;4974326;28;98465;-73
2022/10/07 11:44:34;;;;;;;11.07;2.78;;;20.20;96.60;;;;;;4957655;28;98531;-73
2022/10/07 11:47:05;;;;;;;24.75;5.28;;;20.20;96.70;;;;;;4974485;28;99477;-73
2022/10/07 11:50:02;;;;;;;9.88;3.28;;;20.00;96.70;;;;;;4974978;28;99066;-73
2022/10/07 11:52:31;;;;;;;7.30;2.33;;;19.90;96.80;;;;;;4966416;28;98629;-73
2022/10/07 11:55:28;;;;;;;7.55;2.15;;;19.80;97.00;;;;;;4972913;28;98390;-73
2022/10/07 11:57:58;;;;;;;11.05;2.42;;;19.90;97.10;;;;;;4973090;28;99410;-73
2022/10/07 12:00:30;;;;;;;5.65;2.03;;;20.00;97.10;;;;;;4974432;28;99368;-73
2022/10/07 12:03:24;;;;;;;12.80;3.13;;;20.10;97.40;;;;;;4973245;28;99393;-73
2022/10/07 12:05:55;;;;;;;7.25;1.95;;;20.10;96.70;;;;;;4950866;28;99978;-73
2022/10/07 12:08:32;;;;;;;10.40;2.90;;;20.10;96.90;;;;;;4974530;28;99049;-73
2022/10/07 12:11:11;;;;;;;8.85;3.03;;;20.20;96.90;;;;;;4974422;28;99117;-73
2022/10/07 12:13:44;;;;;;;9.43;3.10;;;20.30;96.60;;;;;;4974701;28;98592;-73
2022/10/07 12:16:38;;;;;;;10.32;2.45;;;20.20;96.80;;;;;;4974606;28;98525;-73
2022/10/07 12:19:11;;;;;;;8.55;2.40;;;20.40;96.60;;;;;;4950235;28;101863;-73
2022/10/07 12:22:02;;;;;;;;;;;20.40;96.80;;;;;;4973790;28;101818;-73
2022/10/07 12:24:33;;;;;;;11.85;2.88;;;20.30;96.50;;;;;;4974283;28;98486;-73
2022/10/07 12:27:11;;;;;;;7.53;2.80;;;20.40;96.90;;;;;;4974299;28;98565;-73
2022/10/07 12:30:01;;;;;;;10.02;3.00;;;20.50;96.60;;;;;;4956080;28;102613;-73
2022/10/07 12:32:51;;;;;;;6.60;2.38;;;20.70;96.20;;;;;;4974231;28;99791;-73
2022/10/07 12:35:41;;;;;;;8.40;2.63;;;20.70;96.20;;;;;;4973260;28;98981;-73
2022/10/07 12:38:17;;;;;;;8.50;2.30;;;20.70;96.20;;;;;;4974356;28;98571;-73
2022/10/07 12:40:52;;;;;;;9.77;3.20;;;20.70;96.20;;;;;;4974043;28;99662;-73
2022/10/07 12:43:25;;;;;;;8.13;2.50;;;20.70;96.30;;;;;;4973897;28;99116;-73
2022/10/07 12:45:53;;;;;;;13.75;3.67;;;20.70;96.30;;;;;;4974125;28;98533;-73
2022/10/07 12:48:23;;;;;;;13.35;3.10;;;20.60;96.30;;;;;;4973224;28;97909;-73
2022/10/07 12:50:55;;;;;;;11.02;3.80;;;20.70;96.20;;;;;;4956116;28;102235;-73
2022/10/07 12:53:25;;;;;;;10.00;2.87;;;20.60;96.30;;;;;;4973943;28;99020;-73
2022/10/07 12:55:54;;;;;;;10.10;3.20;;;20.50;96.40;;;;;;4972415;28;99210;-73
2022/10/07 13:01:37;;;;;;;10.32;2.80;;;20.60;96.50;;;;;;4972132;28;102226;-73
2022/10/07 13:04:09;;;;;;;8.38;3.75;;;20.70;96.50;;;;;;4973512;28;99022;-73
2022/10/07 13:06:39;;;;;;;8.43;2.60;;;20.70;96.40;;;;;;4972521;28;98618;-73
2022/10/07 13:09:18;;;;;;;10.55;2.95;;;20.70;96.40;;;;;;4973511;28;98549;-73
2022/10/07 13:12:38;;;;;;;11.32;2.72;;;20.80;96.20;;;;;;4955834;28;101776;-73
2022/10/07 13:15:17;;;;;;;8.88;2.55;;;20.90;95.50;;;;;;4956634;28;99133;-73
2022/10/07 13:17:53;;;;;;;10.77;2.58;;;20.70;95.60;;;;;;4974052;28;98493;-73
2022/10/07 13:20:23;;;;;;;9.85;2.67;;;20.80;95.10;;;;;;4973596;28;98504;-74
2022/10/07 13:22:50;;;;;;;9.77;3.17;;;20.80;95.20;;;;;;4971361;28;101249;-74
2022/10/07 13:25:19;;;;;;;13.18;2.70;;;20.70;95.20;;;;;;4971841;28;99650;-74
2022/10/07 13:27:57;;;;;;;7.55;2.53;;;20.80;95.20;;;;;;4972040;28;99308;-74
2022/10/07 13:30:49;;;;;;;6.97;2.28;;;20.80;94.90;;;;;;4973872;28;98562;-74